createdAt,value
2022-09-22T00:39:16.870Z,10.10
2022-09-22T00:41:46.964Z,10.00
2022-09-22T00:44:42.544Z,9.90
2022-09-22T00:47:15.389Z,9.90
2022-09-22T00:49:54.438Z,9.80
2022-09-22T00:52:29.235Z,9.90
2022-09-22T00:55:00.051Z,10.10
2022-09-22T00:57:34.333Z,10.20
2022-09-22T01:00:05.025Z,10.10
2022-09-22T01:02:32.832Z,10.10
2022-09-22T01:05:02.901Z,10.00
2022-09-22T01:07:31.533Z,9.70
2022-09-22T01:10:00.807Z,9.60
2022-09-22T01:12:31.120Z,9.50
2022-09-22T01:23:40.575Z,9.20
2022-09-22T01:31:32.839Z,9.60
2022-09-22T01:45:20.640Z,9.70
2022-09-22T01:47:55.556Z,9.60
2022-09-22T01:53:24.376Z,9.60
2022-09-22T02:07:31.760Z,9.30
2022-09-22T02:10:02.210Z,9.10
2022-09-22T02:12:31.560Z,9.00
2022-09-22T02:23:03.669Z,9.00
2022-09-22T02:25:31.257Z,8.80
2022-09-22T02:28:00.988Z,8.80
2022-09-22T02:30:30.874Z,8.90
2022-09-22T02:33:01.385Z,8.80
2022-09-22T02:35:34.204Z,8.80
2022-09-22T02:38:14.482Z,8.80
2022-09-22T02:40:48.553Z,8.70
2022-09-22T02:43:27.258Z,8.70
2022-09-22T02:46:04.687Z,8.60
2022-09-22T02:48:40.871Z,8.80
2022-09-22T02:51:10.084Z,9.00
2022-09-22T02:53:40.103Z,8.90
2022-09-22T02:56:08.379Z,8.90
2022-09-22T02:58:36.588Z,8.90
2022-09-22T03:01:03.650Z,8.80
2022-09-22T03:03:31.353Z,8.70
2022-09-22T03:05:58.149Z,8.70
2022-09-22T03:08:27.113Z,8.70
2022-09-22T03:10:55.892Z,8.70
2022-09-22T03:13:22.734Z,8.60
2022-09-22T03:15:51.837Z,8.60
2022-09-22T03:21:01.330Z,8.50
2022-09-22T03:23:33.338Z,8.40
2022-09-22T03:26:00.297Z,8.50
2022-09-22T03:31:11.324Z,8.40
2022-09-22T03:33:41.876Z,8.20
2022-09-22T03:36:09.855Z,8.30
2022-09-22T03:38:37.433Z,8.10
2022-09-22T03:41:05.639Z,8.00
2022-09-22T03:43:34.876Z,8.00
2022-09-22T03:46:04.957Z,8.10
2022-09-22T03:48:32.784Z,8.20
2022-09-22T03:53:36.373Z,8.30
2022-09-22T03:56:14.010Z,8.10
2022-09-22T03:58:42.560Z,8.10
2022-09-22T04:06:28.116Z,8.10
2022-09-22T04:08:55.732Z,8.00
2022-09-22T04:13:58.930Z,8.00
2022-09-22T04:16:25.819Z,7.90
2022-09-22T04:18:52.954Z,7.90
2022-09-22T04:21:20.068Z,7.80
2022-09-22T04:23:47.870Z,7.80
2022-09-22T04:26:14.819Z,8.00
2022-09-22T04:31:32.145Z,7.90
2022-09-22T04:34:00.162Z,7.80
2022-09-22T04:36:29.160Z,7.80
2022-09-22T04:38:56.626Z,7.70
2022-09-22T04:41:23.584Z,7.90
2022-09-22T04:43:51.082Z,8.00
2022-09-22T04:46:17.959Z,8.00
2022-09-22T04:48:45.921Z,8.00
2022-09-22T04:51:13.993Z,7.90
2022-09-22T04:53:41.139Z,8.00
2022-09-22T04:56:08.407Z,8.00
2022-09-22T04:58:36.585Z,7.90
2022-09-22T05:01:06.243Z,8.00
2022-09-22T05:03:33.997Z,8.10
2022-09-22T05:06:01.038Z,8.10
2022-09-22T05:08:28.335Z,8.10
2022-09-22T05:10:57.903Z,8.10
2022-09-22T05:13:29.838Z,8.10
2022-09-22T05:15:59.775Z,8.00
2022-09-22T05:18:26.979Z,8.00
2022-09-22T05:20:54.180Z,8.20
2022-09-22T05:23:21.642Z,8.10
2022-09-22T05:25:48.970Z,8.10
2022-09-22T05:28:16.128Z,8.20
2022-09-22T05:30:43.651Z,8.50
2022-09-22T05:33:10.827Z,8.80
2022-09-22T05:35:41.207Z,8.90
2022-09-22T05:43:31.957Z,8.60
2022-09-22T05:51:18.417Z,8.60
2022-09-22T05:53:45.674Z,8.70
2022-09-22T05:56:14.961Z,8.70
2022-09-22T05:58:43.101Z,8.80
2022-09-22T06:01:10.138Z,8.70
2022-09-22T06:03:37.458Z,8.70
2022-09-22T06:06:04.432Z,8.80
2022-09-22T06:32:57.317Z,9.60
2022-09-22T06:59:39.473Z,10.80
2022-09-22T07:02:09.922Z,10.70
2022-09-22T07:04:37.371Z,10.50
2022-09-22T07:07:04.117Z,10.30
2022-09-22T07:09:32.265Z,10.60
2022-09-22T07:12:01.891Z,11.00
2022-09-22T07:14:32.281Z,11.60
2022-09-22T07:16:58.999Z,12.30
2022-09-22T07:19:26.033Z,13.70
2022-09-22T07:21:53.212Z,15.10
2022-09-22T07:24:19.917Z,15.30
2022-09-22T07:26:46.657Z,15.50
2022-09-22T07:29:17.212Z,16.00
2022-09-22T07:31:45.522Z,17.90
2022-09-22T07:34:15.512Z,19.30
2022-09-22T07:36:42.498Z,20.80
2022-09-22T07:39:14.406Z,22.90
2022-09-22T07:41:44.269Z,24.20
2022-09-22T07:44:32.185Z,25.30
2022-09-22T07:46:59.749Z,24.10
2022-09-22T07:49:28.023Z,24.10
2022-09-22T07:51:55.625Z,25.20
2022-09-22T07:54:26.433Z,26.00
2022-09-22T07:56:57.160Z,26.50
2022-09-22T07:59:25.007Z,27.10
2022-09-22T08:01:52.464Z,27.90
2022-09-22T08:04:23.103Z,28.50
2022-09-22T08:06:59.749Z,29.10
2022-09-22T08:09:26.633Z,28.80
2022-09-22T08:11:54.239Z,28.90
2022-09-22T08:14:23.758Z,29.30
2022-09-22T08:16:53.734Z,29.70
2022-09-22T08:19:23.101Z,29.00
2022-09-22T08:21:52.064Z,28.90
2022-09-22T08:24:23.113Z,28.90
2022-09-22T08:26:52.823Z,28.30
2022-09-22T08:29:20.555Z,27.70
2022-09-22T08:31:48.048Z,26.10
2022-09-22T08:34:16.709Z,25.20
2022-09-22T08:36:47.525Z,24.90
2022-09-22T08:39:16.016Z,23.60
2022-09-22T08:41:57.462Z,23.40
2022-09-22T08:44:37.784Z,24.20
2022-09-22T08:47:06.564Z,24.00
2022-09-22T08:50:06.233Z,23.80
2022-09-22T08:52:47.305Z,24.80
2022-09-22T08:55:23.118Z,24.30
2022-09-22T08:58:24.101Z,23.10
2022-09-22T09:01:25.030Z,24.90
2022-09-22T09:04:42.983Z,25.20
2022-09-22T09:07:24.291Z,25.30
2022-09-22T09:10:06.036Z,24.60
2022-09-22T09:13:20.199Z,24.60
2022-09-22T09:16:22.189Z,22.90
2022-09-22T09:19:01.253Z,22.20
2022-09-22T09:21:31.297Z,22.40
2022-09-22T09:26:51.193Z,19.30
2022-09-22T09:29:24.550Z,18.10
2022-09-22T09:31:55.771Z,17.70
2022-09-22T09:34:29.478Z,17.90
2022-09-22T09:37:08.660Z,17.30
2022-09-22T09:39:40.625Z,16.70
2022-09-22T09:42:21.584Z,16.30
2022-09-22T09:44:53.489Z,16.40
2022-09-22T09:47:36.602Z,16.50
2022-09-22T09:50:05.220Z,16.10
2022-09-22T09:52:37.142Z,15.90
2022-09-22T09:55:20.355Z,16.00
2022-09-22T09:58:11.708Z,16.00
2022-09-22T10:00:59.194Z,16.00
2022-09-22T10:03:29.954Z,16.10
2022-09-22T10:06:09.569Z,15.70
2022-09-22T10:08:45.834Z,15.30
2022-09-22T10:11:15.608Z,15.00
2022-09-22T10:13:46.320Z,14.90
2022-09-22T10:16:25.017Z,15.10
2022-09-22T10:19:03.768Z,15.40
2022-09-22T10:21:33.631Z,15.30
2022-09-22T10:24:01.239Z,15.50
2022-09-22T10:26:35.726Z,15.70
2022-09-22T10:29:18.866Z,15.70
2022-09-22T10:32:06.160Z,15.40
2022-09-22T10:34:42.157Z,15.20
2022-09-22T10:37:12.902Z,15.10
2022-09-22T10:39:53.497Z,15.40
2022-09-22T10:42:41.793Z,15.70
2022-09-22T10:45:20.148Z,16.00
2022-09-22T10:48:21.208Z,16.20
2022-09-22T10:51:07.325Z,15.60
2022-09-22T10:54:16.417Z,15.70
2022-09-22T10:56:49.789Z,15.70
2022-09-22T10:59:27.133Z,15.60
2022-09-22T11:02:22.532Z,15.80
2022-09-22T11:05:14.169Z,15.70
2022-09-22T11:08:20.181Z,15.40
2022-09-22T11:11:22.820Z,15.50
2022-09-22T11:14:04.455Z,15.70
2022-09-22T11:17:13.449Z,15.70
2022-09-22T11:20:01.712Z,16.00
2022-09-22T11:22:51.586Z,15.90
2022-09-22T11:25:36.650Z,16.10
2022-09-22T11:28:22.369Z,16.00
2022-09-22T11:30:54.647Z,15.90
2022-09-22T11:33:56.042Z,16.10
2022-09-22T11:36:42.668Z,16.20
2022-09-22T11:39:19.995Z,16.40
2022-09-22T11:41:56.302Z,16.40
2022-09-22T11:44:52.816Z,16.40
2022-09-22T11:47:36.831Z,16.10
2022-09-22T11:50:20.596Z,15.90
2022-09-22T11:53:13.895Z,15.90
2022-09-22T11:56:14.146Z,16.00
2022-09-22T11:58:43.173Z,16.10
2022-09-22T12:01:23.031Z,16.20
2022-09-22T12:03:56.896Z,16.10
2022-09-22T12:06:32.684Z,16.30
2022-09-22T12:09:13.209Z,16.40
2022-09-22T12:11:44.956Z,16.50
2022-09-22T12:14:16.147Z,16.40
2022-09-22T12:16:50.374Z,16.10
2022-09-22T12:19:44.779Z,15.90
2022-09-22T12:22:38.091Z,15.70
2022-09-22T12:25:21.151Z,15.70
2022-09-22T12:28:03.703Z,15.90
2022-09-22T12:30:32.148Z,15.70
2022-09-22T12:33:00.116Z,15.60
2022-09-22T12:35:31.782Z,15.50
2022-09-22T12:38:02.534Z,15.50
2022-09-22T12:40:36.468Z,15.50
2022-09-22T12:43:07.333Z,15.60
2022-09-22T12:45:40.029Z,15.90
2022-09-22T12:48:18.271Z,16.10
2022-09-22T12:50:46.708Z,16.20
2022-09-22T12:53:22.491Z,16.00
2022-09-22T12:55:50.674Z,15.70
2022-09-22T12:58:27.661Z,15.40
2022-09-22T13:00:57.384Z,15.20
2022-09-22T13:03:33.331Z,15.00
2022-09-22T13:06:23.639Z,14.80
2022-09-22T13:09:22.474Z,14.60
2022-09-22T13:12:14.967Z,14.50
2022-09-22T13:15:06.693Z,14.80
2022-09-22T13:17:51.139Z,15.20
2022-09-22T13:20:17.847Z,15.60
2022-09-22T13:22:45.353Z,15.60
2022-09-22T13:25:31.371Z,15.50
2022-09-22T13:28:08.981Z,15.40
2022-09-22T13:30:37.657Z,15.30
2022-09-22T13:33:04.966Z,15.20
2022-09-22T13:35:38.840Z,15.10
2022-09-22T13:38:06.059Z,15.30
2022-09-22T13:40:34.856Z,15.40
2022-09-22T13:43:07.472Z,15.50
2022-09-22T13:45:37.922Z,15.50
2022-09-22T13:48:24.162Z,15.40
2022-09-22T13:51:00.651Z,15.30
2022-09-22T13:53:27.626Z,15.30
2022-09-22T13:55:54.941Z,15.20
2022-09-22T13:58:44.560Z,15.20
2022-09-22T14:01:22.555Z,15.30
2022-09-22T14:03:52.261Z,15.30
2022-09-22T14:06:22.539Z,15.30
2022-09-22T14:08:51.402Z,15.20
2022-09-22T14:11:30.901Z,15.10
2022-09-22T14:14:02.700Z,15.20
2022-09-22T14:17:09.025Z,15.30
2022-09-22T14:20:03.743Z,15.30
2022-09-22T14:22:40.637Z,15.30
2022-09-22T14:25:22.731Z,15.20
2022-09-22T14:28:00.184Z,15.20
2022-09-22T14:30:33.630Z,15.20
2022-09-22T14:33:04.095Z,15.20
2022-09-22T14:35:36.368Z,15.10
2022-09-22T14:38:20.878Z,15.10
2022-09-22T14:40:56.047Z,15.10
2022-09-22T14:43:38.656Z,15.00
2022-09-22T14:46:34.878Z,15.10
2022-09-22T14:51:47.362Z,15.00
2022-09-22T14:54:16.620Z,15.00
2022-09-22T14:56:45.531Z,14.80
2022-09-22T14:59:37.483Z,14.80
2022-09-22T15:02:31.365Z,14.80
2022-09-22T15:05:01.200Z,14.90
2022-09-22T15:07:37.400Z,14.90
2022-09-22T15:10:23.213Z,14.90
2022-09-22T15:12:52.675Z,14.80
2022-09-22T15:15:32.021Z,14.80
2022-09-22T15:18:18.900Z,14.80
2022-09-22T15:20:57.760Z,14.70
2022-09-22T15:23:31.776Z,14.60
2022-09-22T15:26:06.207Z,14.60
2022-09-22T15:28:39.678Z,14.60
2022-09-22T15:31:07.517Z,14.50
2022-09-22T15:36:21.083Z,14.50
2022-09-22T15:38:48.704Z,14.50
2022-09-22T15:41:17.423Z,14.40
2022-09-22T15:43:44.564Z,14.40
2022-09-22T15:46:39.165Z,14.40
2022-09-22T15:49:21.365Z,14.30
2022-09-22T15:51:53.368Z,14.30
2022-09-22T15:54:23.348Z,14.30
2022-09-22T15:56:58.111Z,14.20
2022-09-22T15:59:32.059Z,14.20
2022-09-22T16:02:01.469Z,14.10
2022-09-22T16:04:33.782Z,14.10
2022-09-22T16:07:06.186Z,14.00
2022-09-22T16:09:36.435Z,14.00
2022-09-22T16:12:08.525Z,13.90
2022-09-22T16:14:41.758Z,13.90
2022-09-22T16:17:12.376Z,13.80
2022-09-22T16:19:39.250Z,13.70
2022-09-22T16:22:07.291Z,13.70
2022-09-22T16:24:34.063Z,13.60
2022-09-22T16:27:08.058Z,13.60
2022-09-22T16:29:40.851Z,13.50
2022-09-22T16:32:16.443Z,13.50
2022-09-22T16:34:45.241Z,13.40
2022-09-22T16:37:17.218Z,13.30
2022-09-22T16:39:48.733Z,13.20
2022-09-22T16:42:22.858Z,13.20
2022-09-22T16:44:57.928Z,13.20
2022-09-22T16:47:25.673Z,13.20
2022-09-22T16:49:56.672Z,13.10
2022-09-22T16:52:25.604Z,13.00
2022-09-22T16:55:01.156Z,13.00
2022-09-22T16:57:37.053Z,12.90
2022-09-22T17:00:04.214Z,12.80
2022-09-22T17:02:33.144Z,12.90
2022-09-22T17:05:04.326Z,12.80
2022-09-22T17:07:33.309Z,12.90
2022-09-22T17:10:06.140Z,12.90
2022-09-22T17:12:38.562Z,12.90
2022-09-22T17:15:09.559Z,12.90
2022-09-22T17:17:37.773Z,12.90
2022-09-22T17:20:05.266Z,12.90
2022-09-22T17:22:33.324Z,12.90
2022-09-22T17:25:01.334Z,12.90
2022-09-22T17:27:30.859Z,12.30
2022-09-22T17:30:00.336Z,12.10
2022-09-22T17:32:29.477Z,12.10
2022-09-22T17:34:56.477Z,12.30
2022-09-22T17:37:25.343Z,12.40
2022-09-22T17:39:53.277Z,12.30
2022-09-22T17:42:22.108Z,12.40
2022-09-22T17:44:48.912Z,12.50
2022-09-22T17:47:34.370Z,12.20
2022-09-22T17:50:22.363Z,12.00
2022-09-22T17:53:08.114Z,11.60
2022-09-22T17:55:36.061Z,11.70
2022-09-22T17:58:03.318Z,11.80
2022-09-22T18:00:30.610Z,11.80
2022-09-22T18:02:58.484Z,11.90
2022-09-22T18:05:27.095Z,11.80
2022-09-22T18:07:59.643Z,11.90
2022-09-22T18:10:30.977Z,11.80
2022-09-22T18:12:58.322Z,11.80
2022-09-22T18:15:28.757Z,11.70
2022-09-22T18:17:58.144Z,11.60
2022-09-22T18:20:26.490Z,11.60
2022-09-22T18:22:58.338Z,11.60
2022-09-22T18:25:25.949Z,11.30
2022-09-22T18:27:55.192Z,11.20
2022-09-22T18:30:22.872Z,11.20
2022-09-22T18:33:00.401Z,11.20
2022-09-22T18:35:29.245Z,11.10
2022-09-22T18:38:04.457Z,11.00
2022-09-22T18:40:31.991Z,11.00
2022-09-22T18:43:00.325Z,11.00
2022-09-22T18:45:27.952Z,11.00
2022-09-22T18:47:59.927Z,11.00
2022-09-22T18:50:27.858Z,11.00
2022-09-22T18:52:59.835Z,11.00
2022-09-22T18:55:27.639Z,10.90
2022-09-22T18:58:08.672Z,10.80
2022-09-22T19:00:41.480Z,10.70
2022-09-22T19:03:10.651Z,10.60
2022-09-22T19:05:37.513Z,10.50
2022-09-22T19:08:06.459Z,10.60
2022-09-22T19:10:39.493Z,10.60
2022-09-22T19:13:10.367Z,10.60
2022-09-22T19:15:40.467Z,10.60
2022-09-22T19:18:09.400Z,10.60
2022-09-22T19:20:38.934Z,10.60
2022-09-22T19:23:09.350Z,10.50
2022-09-22T19:25:39.620Z,10.50
2022-09-22T19:28:11.507Z,10.50
2022-09-22T19:30:41.622Z,10.40
2022-09-22T19:33:11.780Z,10.40
2022-09-22T19:35:44.519Z,10.30
2022-09-22T19:40:58.105Z,10.20
2022-09-22T19:43:29.064Z,10.10
2022-09-22T19:45:57.726Z,10.00
2022-09-22T19:48:26.404Z,10.00
2022-09-22T19:53:42.526Z,10.00
2022-09-22T19:56:10.934Z,9.90
2022-09-22T19:58:38.617Z,9.90
2022-09-22T20:01:11.275Z,9.90
2022-09-22T20:03:40.551Z,9.80
2022-09-22T20:06:08.545Z,9.80
2022-09-22T20:08:40.359Z,9.60
2022-09-22T20:11:25.488Z,9.60
2022-09-22T20:14:13.200Z,9.60
2022-09-22T20:16:46.010Z,9.40
2022-09-22T20:19:30.108Z,9.50
2022-09-22T20:22:23.122Z,9.30
2022-09-22T20:24:58.221Z,9.40
2022-09-22T20:27:34.125Z,9.40
2022-09-22T20:30:01.569Z,9.40
2022-09-22T20:32:35.270Z,9.40
2022-09-22T20:35:03.481Z,9.40
2022-09-22T20:37:32.438Z,9.30
2022-09-22T20:40:07.737Z,9.30
2022-09-22T20:42:36.515Z,9.30
2022-09-22T20:45:11.141Z,9.30
2022-09-22T20:47:41.460Z,9.20
2022-09-22T20:50:09.964Z,9.00
2022-09-22T20:52:40.022Z,9.10
2022-09-22T20:55:11.260Z,9.10
2022-09-22T20:57:41.354Z,9.10
2022-09-22T21:00:11.198Z,9.10
2022-09-22T21:02:41.308Z,9.00
2022-09-22T21:05:13.067Z,9.00
2022-09-22T21:07:40.382Z,8.90
2022-09-22T21:10:28.976Z,8.90
2022-09-22T21:13:04.889Z,8.70
2022-09-22T21:15:32.593Z,8.80
2022-09-22T21:18:04.127Z,8.90
2022-09-22T21:20:33.665Z,8.80
2022-09-22T21:23:05.444Z,8.80
2022-09-22T21:25:35.096Z,8.80
2022-09-22T21:28:03.563Z,8.60
2022-09-22T21:30:33.068Z,8.60
2022-09-22T21:33:01.911Z,8.60
2022-09-22T21:35:30.388Z,8.70
2022-09-22T21:38:01.585Z,8.70
2022-09-22T21:40:30.182Z,8.70
2022-09-22T21:42:58.099Z,8.70
2022-09-22T21:45:29.725Z,8.70
2022-09-22T21:47:59.848Z,8.70
2022-09-22T21:50:28.803Z,8.70
2022-09-22T21:52:58.898Z,8.70
2022-09-22T21:55:27.492Z,8.60
2022-09-22T21:57:57.256Z,8.60
2022-09-22T22:00:50.409Z,8.40
2022-09-22T22:03:32.158Z,8.30
2022-09-22T22:06:07.114Z,8.40
2022-09-22T22:08:46.614Z,8.40
2022-09-22T22:11:22.680Z,8.40
2022-09-22T22:13:54.163Z,8.30
2022-09-22T22:16:24.664Z,8.40
2022-09-22T22:18:51.970Z,8.40
2022-09-22T22:21:23.346Z,8.40
2022-09-22T22:23:57.606Z,8.30
2022-09-22T22:26:26.798Z,8.20
2022-09-22T22:29:06.060Z,8.30
2022-09-22T22:31:33.374Z,8.30
2022-09-22T22:34:00.281Z,8.30
2022-09-22T22:36:27.416Z,8.30
2022-09-22T22:39:04.995Z,8.30
2022-09-22T22:41:34.152Z,8.30
2022-09-22T22:44:09.303Z,8.30
2022-09-22T22:46:36.883Z,8.30
2022-09-22T22:49:07.701Z,8.20
2022-09-22T22:51:36.486Z,8.20
2022-09-22T22:54:08.757Z,8.20
2022-09-22T22:56:39.687Z,8.20
2022-09-22T22:59:09.757Z,8.10
2022-09-22T23:01:44.797Z,8.20
2022-09-22T23:04:12.357Z,8.10
2022-09-22T23:06:45.508Z,8.10
2022-09-22T23:09:15.523Z,8.10
2022-09-22T23:11:48.984Z,8.00
2022-09-22T23:14:31.356Z,7.90
2022-09-22T23:17:06.332Z,7.90
2022-09-22T23:19:36.506Z,8.00
2022-09-22T23:22:04.584Z,7.90
2022-09-22T23:24:37.663Z,7.80
2022-09-22T23:27:05.387Z,7.80
2022-09-22T23:29:36.410Z,7.70
2022-09-22T23:32:06.939Z,7.70
2022-09-22T23:34:35.322Z,7.70
2022-09-22T23:37:06.995Z,7.80
2022-09-22T23:39:35.087Z,7.80
2022-09-22T23:42:03.697Z,7.70
2022-09-22T23:44:30.420Z,7.70
2022-09-22T23:46:57.490Z,7.60
2022-09-22T23:49:24.974Z,7.60
2022-09-22T23:51:52.673Z,7.70
2022-09-22T23:54:21.789Z,7.70
2022-09-22T23:56:49.401Z,7.60
2022-09-22T23:59:18.147Z,7.60
